Broomfield, CO (80020)

8:30 AM MDT on July 07, 2015 (GMT -0600)
Northmoor Subdivision - Central Broomfield | | Change Station
CLOSE
Current Station
Personal Weather Station
Location: Broomfield, CO
Elevation: 5384 ft
Nearby Weather Stations

Elev 5384 ft 39.94 °N, 105.05 °W | Updated 5 seconds ago

Fog
Fog
61.0 °F
Feels Like 61.0 °F
N
0.0
Wind Variable Wind from North
Gusts 0.0 mph

Today
High -- | Low -- °F
--% Chance of Precip.
Yesterday
High -- | Low -- °F
Precip. -- in
5:38 AM 8:31 PM
Waning Gibbous, 64% visible
Pressure 30.23 in
Visibility 1.5 miles
Clouds
Dew Point 59 °F
Humidity 93%
Rainfall 0.02 in
Snow Depth Not available.
UV Not available.
Pollen 4.80 out of 12
Air Quality Not available.
Flu Activity Not available.
METAR KBJC 071347Z 00000KT 1 1/2SM BR VV003 15/14 A3023

More Conditions Fewer Conditions

Pressure 30.23 in
Visibility 1.5 miles
Clouds
Dew Point 59 °F
Humidity 93%
Rainfall 0.02 in
Snow Depth Not available.
UV Not available.
Pollen 4.80 out of 12
Air Quality Not available.
Flu Activity Not available.
METAR KBJC 071347Z 00000KT 1 1/2SM BR VV003 15/14 A3023

More Conditions Fewer Conditions

10-Day Weather Forecast

×

Almanac

Astronomy

Jul. 07, 2015 Rise Set
Actual Time
Civil Twilight
Nautical Twilight
Astronomical Twilight
Moon
Length of Visible Light
Length of Day
Tomorrow will be .
, % of the Moon is Illuminated

Today's Extremes

State Highs State Lows

Community

WunderPhotos

Upload Photos

1,835,810 photos uploaded!

WunderBlogs® & News

Nearby

Air Quality

  Air Quality AQ Index Pollutant
Not available.

Snow Depth

Station Depth Elevation

Earthquake Activity

City Distance Mag. Time & Date
Minimum magnitude displayed is 2.5.

Coastal Water Temperatures

Place Temperature

Stations

Nearby Weather Stations

Station Location Temp. Windchill Dew Point Humidity Wind Precip. Elev Updated Type